sensor_id;sensor_type;location;lat;lon;timestamp;temperature;humidity
42907;DHT22;28552;51.146;6.576;2024-03-23T00:54:16;6.80;99.90
42907;DHT22;28552;51.146;6.576;2024-03-23T00:57:17;6.90;99.90
42907;DHT22;28552;51.146;6.576;2024-03-23T01:00:17;6.80;99.90
42907;DHT22;28552;51.146;6.576;2024-03-23T01:03:18;6.80;99.90
42907;DHT22;28552;51.146;6.576;2024-03-23T01:06:18;6.70;99.90
42907;DHT22;28552;51.146;6.576;2024-03-23T01:09:19;6.40;99.90
42907;DHT22;28552;51.146;6.576;2024-03-23T01:12:19;6.30;99.90
42907;DHT22;28552;51.146;6.576;2024-03-23T01:15:20;6.10;99.90
42907;DHT22;28552;51.146;6.576;2024-03-23T01:18:22;6.00;99.90
42907;DHT22;28552;51.146;6.576;2024-03-23T01:21:23;5.90;99.90
42907;DHT22;28552;51.146;6.576;2024-03-23T01:24:23;5.80;99.90
42907;DHT22;28552;51.146;6.576;2024-03-23T01:27:24;5.70;99.90
42907;DHT22;28552;51.146;6.576;2024-03-23T01:30:25;5.70;99.90
42907;DHT22;28552;51.146;6.576;2024-03-23T01:33:26;5.70;99.90
42907;DHT22;28552;51.146;6.576;2024-03-23T01:36:26;5.70;99.90
42907;DHT22;28552;51.146;6.576;2024-03-23T01:39:27;5.70;99.90
42907;DHT22;28552;51.146;6.576;2024-03-23T01:42:27;5.60;99.90
42907;DHT22;28552;51.146;6.576;2024-03-23T01:45:28;5.70;99.90
42907;DHT22;28552;51.146;6.576;2024-03-23T01:48:29;5.70;99.90
42907;DHT22;28552;51.146;6.576;2024-03-23T01:51:30;5.60;99.90
42907;DHT22;28552;51.146;6.576;2024-03-23T01:54:31;5.60;99.90
42907;DHT22;28552;51.146;6.576;2024-03-23T01:57:32;5.60;99.90
42907;DHT22;28552;51.146;6.576;2024-03-23T02:00:33;5.60;99.90
42907;DHT22;28552;51.146;6.576;2024-03-23T02:03:33;5.60;99.90
42907;DHT22;28552;51.146;6.576;2024-03-23T02:06:34;5.60;99.90
42907;DHT22;28552;51.146;6.576;2024-03-23T02:09:34;5.60;99.90
42907;DHT22;28552;51.146;6.576;2024-03-23T02:12:35;5.60;99.90
42907;DHT22;28552;51.146;6.576;2024-03-23T02:15:36;5.60;99.90
42907;DHT22;28552;51.146;6.576;2024-03-23T02:18:37;5.60;99.90
42907;DHT22;28552;51.146;6.576;2024-03-23T02:21:37;5.60;99.90
42907;DHT22;28552;51.146;6.576;2024-03-23T02:24:38;5.50;99.90
42907;DHT22;28552;51.146;6.576;2024-03-23T02:27:39;5.50;99.90
42907;DHT22;28552;51.146;6.576;2024-03-23T02:30:40;5.50;99.90
42907;DHT22;28552;51.146;6.576;2024-03-23T02:33:41;5.50;99.90
42907;DHT22;28552;51.146;6.576;2024-03-23T02:36:41;5.50;99.90
42907;DHT22;28552;51.146;6.576;2024-03-23T02:39:42;5.50;99.90
42907;DHT22;28552;51.146;6.576;2024-03-23T02:42:42;5.50;99.90
42907;DHT22;28552;51.146;6.576;2024-03-23T02:45:43;5.50;99.90
42907;DHT22;28552;51.146;6.576;2024-03-23T02:48:44;5.50;99.90
42907;DHT22;28552;51.146;6.576;2024-03-23T02:51:44;5.50;99.90
42907;DHT22;28552;51.146;6.576;2024-03-23T02:54:45;5.50;99.90
42907;DHT22;28552;51.146;6.576;2024-03-23T02:57:46;5.50;99.90
42907;DHT22;28552;51.146;6.576;2024-03-23T03:00:47;5.50;99.90
42907;DHT22;28552;51.146;6.576;2024-03-23T03:03:47;5.50;99.90
42907;DHT22;28552;51.146;6.576;2024-03-23T03:06:49;5.50;99.90
42907;DHT22;28552;51.146;6.576;2024-03-23T03:09:49;5.50;99.90
42907;DHT22;28552;51.146;6.576;2024-03-23T03:12:50;5.40;99.90
42907;DHT22;28552;51.146;6.576;2024-03-23T03:15:51;5.50;99.90
42907;DHT22;28552;51.146;6.576;2024-03-23T03:18:51;5.50;99.90
42907;DHT22;28552;51.146;6.576;2024-03-23T03:21:53;5.50;99.90
42907;DHT22;28552;51.146;6.576;2024-03-23T03:24:53;5.50;99.90
42907;DHT22;28552;51.146;6.576;2024-03-23T03:27:54;5.50;99.90
42907;DHT22;28552;51.146;6.576;2024-03-23T03:30:55;5.50;99.90
42907;DHT22;28552;51.146;6.576;2024-03-23T03:33:55;5.50;99.90
42907;DHT22;28552;51.146;6.576;2024-03-23T03:36:56;5.50;99.90
42907;DHT22;28552;51.146;6.576;2024-03-23T03:39:57;5.50;99.90
42907;DHT22;28552;51.146;6.576;2024-03-23T03:42:58;5.50;99.90
42907;DHT22;28552;51.146;6.576;2024-03-23T03:46:00;5.50;99.90
42907;DHT22;28552;51.146;6.576;2024-03-23T03:49:00;5.50;99.90
42907;DHT22;28552;51.146;6.576;2024-03-23T03:52:01;5.50;99.90
42907;DHT22;28552;51.146;6.576;2024-03-23T03:55:03;5.50;99.90
42907;DHT22;28552;51.146;6.576;2024-03-23T03:58:03;5.50;99.90
42907;DHT22;28552;51.146;6.576;2024-03-23T04:01:04;5.40;99.90
42907;DHT22;28552;51.146;6.576;2024-03-23T04:04:05;5.50;99.90
42907;DHT22;28552;51.146;6.576;2024-03-23T04:07:06;5.50;99.90
42907;DHT22;28552;51.146;6.576;2024-03-23T04:10:07;5.50;99.90
42907;DHT22;28552;51.146;6.576;2024-03-23T04:13:08;5.50;99.90
42907;DHT22;28552;51.146;6.576;2024-03-23T04:16:08;5.40;99.90
42907;DHT22;28552;51.146;6.576;2024-03-23T04:19:09;5.40;99.90
42907;DHT22;28552;51.146;6.576;2024-03-23T04:22:10;5.40;99.90
42907;DHT22;28552;51.146;6.576;2024-03-23T04:25:11;5.40;99.90
42907;DHT22;28552;51.146;6.576;2024-03-23T04:28:11;5.40;99.90
42907;DHT22;28552;51.146;6.576;2024-03-23T04:31:12;5.50;99.90
42907;DHT22;28552;51.146;6.576;2024-03-23T04:34:13;5.50;99.90
42907;DHT22;28552;51.146;6.576;2024-03-23T04:37:14;5.50;99.90
42907;DHT22;28552;51.146;6.576;2024-03-23T04:40:15;5.50;99.90
42907;DHT22;28552;51.146;6.576;2024-03-23T04:43:15;5.50;99.90
42907;DHT22;28552;51.146;6.576;2024-03-23T04:46:16;5.50;99.90
42907;DHT22;28552;51.146;6.576;2024-03-23T04:49:16;5.50;99.90
42907;DHT22;28552;51.146;6.576;2024-03-23T04:52:17;5.50;99.90
42907;DHT22;28552;51.146;6.576;2024-03-23T04:55:18;5.50;99.90
42907;DHT22;28552;51.146;6.576;2024-03-23T04:58:20;5.50;99.90
42907;DHT22;28552;51.146;6.576;2024-03-23T05:01:20;5.50;99.90
42907;DHT22;28552;51.146;6.576;2024-03-23T05:04:21;5.50;99.90
42907;DHT22;28552;51.146;6.576;2024-03-23T05:07:21;5.50;99.90
42907;DHT22;28552;51.146;6.576;2024-03-23T05:10:22;5.50;99.90
42907;DHT22;28552;51.146;6.576;2024-03-23T05:13:23;5.50;99.90
42907;DHT22;28552;51.146;6.576;2024-03-23T05:16:24;5.50;99.90
42907;DHT22;28552;51.146;6.576;2024-03-23T05:19:24;5.40;99.90
42907;DHT22;28552;51.146;6.576;2024-03-23T05:22:25;5.40;99.90
42907;DHT22;28552;51.146;6.576;2024-03-23T05:25:25;5.40;99.90
42907;DHT22;28552;51.146;6.576;2024-03-23T05:28:26;5.40;99.90
42907;DHT22;28552;51.146;6.576;2024-03-23T05:31:28;5.40;99.90
42907;DHT22;28552;51.146;6.576;2024-03-23T05:34:29;5.50;99.90
42907;DHT22;28552;51.146;6.576;2024-03-23T05:37:30;5.50;99.90
42907;DHT22;28552;51.146;6.576;2024-03-23T05:40:34;5.50;99.90
42907;DHT22;28552;51.146;6.576;2024-03-23T05:43:37;5.50;99.90
42907;DHT22;28552;51.146;6.576;2024-03-23T05:46:38;5.50;99.90
42907;DHT22;28552;51.146;6.576;2024-03-23T05:49:39;5.40;99.90
42907;DHT22;28552;51.146;6.576;2024-03-23T05:52:39;5.40;99.90
42907;DHT22;28552;51.146;6.576;2024-03-23T05:55:40;5.40;99.90
42907;DHT22;28552;51.146;6.576;2024-03-23T05:58:40;5.30;99.90
42907;DHT22;28552;51.146;6.576;2024-03-23T06:01:41;5.20;99.90
42907;DHT22;28552;51.146;6.576;2024-03-23T06:04:42;5.10;99.90
42907;DHT22;28552;51.146;6.576;2024-03-23T06:07:42;5.10;99.90
42907;DHT22;28552;51.146;6.576;2024-03-23T06:10:43;5.10;99.90
42907;DHT22;28552;51.146;6.576;2024-03-23T06:13:43;5.10;99.90
42907;DHT22;28552;51.146;6.576;2024-03-23T06:16:44;5.10;99.90
42907;DHT22;28552;51.146;6.576;2024-03-23T06:19:45;5.00;99.90
42907;DHT22;28552;51.146;6.576;2024-03-23T06:22:45;5.00;99.90
42907;DHT22;28552;51.146;6.576;2024-03-23T06:25:46;5.00;99.90
42907;DHT22;28552;51.146;6.576;2024-03-23T06:28:47;5.00;99.90
42907;DHT22;28552;51.146;6.576;2024-03-23T06:31:53;5.00;99.90
42907;DHT22;28552;51.146;6.576;2024-03-23T06:34:55;5.00;99.90
42907;DHT22;28552;51.146;6.576;2024-03-23T06:37:55;5.00;99.90
42907;DHT22;28552;51.146;6.576;2024-03-23T06:40:56;5.10;99.90
42907;DHT22;28552;51.146;6.576;2024-03-23T06:43:56;5.10;99.90
42907;DHT22;28552;51.146;6.576;2024-03-23T06:46:57;5.10;99.90
42907;DHT22;28552;51.146;6.576;2024-03-23T06:49:59;5.20;99.90
42907;DHT22;28552;51.146;6.576;2024-03-23T06:53:02;5.20;99.90
42907;DHT22;28552;51.146;6.576;2024-03-23T06:56:02;5.30;99.90
42907;DHT22;28552;51.146;6.576;2024-03-23T06:59:03;5.30;99.90
42907;DHT22;28552;51.146;6.576;2024-03-23T07:02:05;5.40;99.90
42907;DHT22;28552;51.146;6.576;2024-03-23T07:05:06;5.40;99.90
42907;DHT22;28552;51.146;6.576;2024-03-23T07:08:07;5.50;99.90
42907;DHT22;28552;51.146;6.576;2024-03-23T07:11:08;5.60;99.90
42907;DHT22;28552;51.146;6.576;2024-03-23T07:14:08;5.60;99.90
42907;DHT22;28552;51.146;6.576;2024-03-23T07:17:09;5.70;99.90
42907;DHT22;28552;51.146;6.576;2024-03-23T07:20:11;5.70;99.90
42907;DHT22;28552;51.146;6.576;2024-03-23T07:23:12;5.90;99.90
42907;DHT22;28552;51.146;6.576;2024-03-23T07:26:12;5.90;99.90
42907;DHT22;28552;51.146;6.576;2024-03-23T07:29:13;6.10;99.90
42907;DHT22;28552;51.146;6.576;2024-03-23T07:32:13;6.20;99.90
42907;DHT22;28552;51.146;6.576;2024-03-23T07:35:14;6.20;99.90
42907;DHT22;28552;51.146;6.576;2024-03-23T07:38:15;6.30;99.90
42907;DHT22;28552;51.146;6.576;2024-03-23T07:41:17;6.30;99.90
42907;DHT22;28552;51.146;6.576;2024-03-23T07:44:18;6.30;99.90
42907;DHT22;28552;51.146;6.576;2024-03-23T07:47:19;6.40;99.90
42907;DHT22;28552;51.146;6.576;2024-03-23T07:50:19;6.50;99.90
42907;DHT22;28552;51.146;6.576;2024-03-23T07:53:20;6.60;99.90
42907;DHT22;28552;51.146;6.576;2024-03-23T07:56:20;6.70;99.90
42907;DHT22;28552;51.146;6.576;2024-03-23T07:59:22;6.80;99.90
42907;DHT22;28552;51.146;6.576;2024-03-23T08:02:22;7.00;99.90
42907;DHT22;28552;51.146;6.576;2024-03-23T08:05:26;7.00;99.90
42907;DHT22;28552;51.146;6.576;2024-03-23T08:08:26;7.10;99.90
42907;DHT22;28552;51.146;6.576;2024-03-23T08:11:28;7.10;99.90
42907;DHT22;28552;51.146;6.576;2024-03-23T08:14:29;7.20;99.90
42907;DHT22;28552;51.146;6.576;2024-03-23T08:17:29;7.20;99.90
42907;DHT22;28552;51.146;6.576;2024-03-23T08:20:30;7.10;99.90
42907;DHT22;28552;51.146;6.576;2024-03-23T08:23:33;7.30;99.90
42907;DHT22;28552;51.146;6.576;2024-03-23T08:26:36;7.50;99.90
42907;DHT22;28552;51.146;6.576;2024-03-23T08:29:37;7.70;99.90
42907;DHT22;28552;51.146;6.576;2024-03-23T08:32:38;7.80;99.90
42907;DHT22;28552;51.146;6.576;2024-03-23T08:35:39;8.00;99.90
42907;DHT22;28552;51.146;6.576;2024-03-23T08:38:40;8.00;99.90
42907;DHT22;28552;51.146;6.576;2024-03-23T08:41:40;8.00;99.90
42907;DHT22;28552;51.146;6.576;2024-03-23T08:44:43;7.90;99.90
42907;DHT22;28552;51.146;6.576;2024-03-23T08:47:46;7.80;99.90
42907;DHT22;28552;51.146;6.576;2024-03-23T08:50:57;7.70;99.90
42907;DHT22;28552;51.146;6.576;2024-03-23T08:53:57;7.80;99.90
42907;DHT22;28552;51.146;6.576;2024-03-23T08:56:58;7.90;99.90
42907;DHT22;28552;51.146;6.576;2024-03-23T08:59:59;7.80;99.90
42907;DHT22;28552;51.146;6.576;2024-03-23T09:02:59;7.70;99.90
42907;DHT22;28552;51.146;6.576;2024-03-23T09:06:07;7.60;99.90
42907;DHT22;28552;51.146;6.576;2024-03-23T09:09:08;7.60;99.90
42907;DHT22;28552;51.146;6.576;2024-03-23T09:12:08;7.70;99.90
42907;DHT22;28552;51.146;6.576;2024-03-23T09:15:09;7.90;99.90
42907;DHT22;28552;51.146;6.576;2024-03-23T09:18:09;8.20;99.90
42907;DHT22;28552;51.146;6.576;2024-03-23T09:21:12;8.40;99.90
42907;DHT22;28552;51.146;6.576;2024-03-23T09:24:14;8.30;99.90
42907;DHT22;28552;51.146;6.576;2024-03-23T09:27:15;8.20;99.90
42907;DHT22;28552;51.146;6.576;2024-03-23T09:30:15;8.10;99.90
42907;DHT22;28552;51.146;6.576;2024-03-23T09:33:16;8.00;99.90
42907;DHT22;28552;51.146;6.576;2024-03-23T09:36:17;8.10;99.90
42907;DHT22;28552;51.146;6.576;2024-03-23T09:39:19;8.00;99.90
42907;DHT22;28552;51.146;6.576;2024-03-23T09:42:19;7.90;99.90
42907;DHT22;28552;51.146;6.576;2024-03-23T09:45:23;7.80;99.90
42907;DHT22;28552;51.146;6.576;2024-03-23T09:48:26;7.80;99.90
42907;DHT22;28552;51.146;6.576;2024-03-23T09:51:27;7.90;99.90
42907;DHT22;28552;51.146;6.576;2024-03-23T09:54:28;8.20;99.90
42907;DHT22;28552;51.146;6.576;2024-03-23T09:57:28;8.50;99.90
42907;DHT22;28552;51.146;6.576;2024-03-23T10:00:29;8.80;99.90
42907;DHT22;28552;51.146;6.576;2024-03-23T10:03:29;9.10;99.90
42907;DHT22;28552;51.146;6.576;2024-03-23T10:06:30;9.20;99.90
42907;DHT22;28552;51.146;6.576;2024-03-23T10:09:30;9.20;99.90
42907;DHT22;28552;51.146;6.576;2024-03-23T10:12:31;9.20;99.90
42907;DHT22;28552;51.146;6.576;2024-03-23T10:15:35;9.00;99.90
42907;DHT22;28552;51.146;6.576;2024-03-23T10:18:38;9.00;99.90
42907;DHT22;28552;51.146;6.576;2024-03-23T10:21:38;8.80;99.90
42907;DHT22;28552;51.146;6.576;2024-03-23T10:24:39;8.80;99.90
42907;DHT22;28552;51.146;6.576;2024-03-23T10:27:39;8.90;99.90
42907;DHT22;28552;51.146;6.576;2024-03-23T10:30:40;9.10;99.90
42907;DHT22;28552;51.146;6.576;2024-03-23T10:33:45;9.30;99.90
42907;DHT22;28552;51.146;6.576;2024-03-23T10:36:45;9.40;99.90
42907;DHT22;28552;51.146;6.576;2024-03-23T10:39:46;9.50;99.90
42907;DHT22;28552;51.146;6.576;2024-03-23T10:42:47;9.20;99.90
42907;DHT22;28552;51.146;6.576;2024-03-23T10:45:49;8.20;99.90
42907;DHT22;28552;51.146;6.576;2024-03-23T10:48:50;7.00;99.90
42907;DHT22;28552;51.146;6.576;2024-03-23T10:51:51;6.10;99.90
42907;DHT22;28552;51.146;6.576;2024-03-23T10:54:52;5.50;99.90
42907;DHT22;28552;51.146;6.576;2024-03-23T10:57:54;5.10;99.90
42907;DHT22;28552;51.146;6.576;2024-03-23T11:00:56;5.00;99.90
42907;DHT22;28552;51.146;6.576;2024-03-23T11:03:57;4.90;99.90
42907;DHT22;28552;51.146;6.576;2024-03-23T11:06:58;4.90;99.90
42907;DHT22;28552;51.146;6.576;2024-03-23T11:10:00;5.00;99.90
42907;DHT22;28552;51.146;6.576;2024-03-23T11:13:21;5.20;99.90
42907;DHT22;28552;51.146;6.576;2024-03-23T11:16:29;5.30;99.90
42907;DHT22;28552;51.146;6.576;2024-03-23T11:19:35;5.40;99.90
42907;DHT22;28552;51.146;6.576;2024-03-23T11:25:41;5.80;99.90
42907;DHT22;28552;51.146;6.576;2024-03-23T11:28:42;6.00;99.90
42907;DHT22;28552;51.146;6.576;2024-03-23T11:34:48;6.70;99.90
42907;DHT22;28552;51.146;6.576;2024-03-23T11:38:04;7.10;99.90
42907;DHT22;28552;51.146;6.576;2024-03-23T11:41:05;7.40;99.90
42907;DHT22;28552;51.146;6.576;2024-03-23T11:44:17;7.70;99.90
42907;DHT22;28552;51.146;6.576;2024-03-23T11:47:32;8.00;99.90
42907;DHT22;28552;51.146;6.576;2024-03-23T11:50:34;8.10;99.90
42907;DHT22;28552;51.146;6.576;2024-03-23T11:53:35;7.90;99.90
42907;DHT22;28552;51.146;6.576;2024-03-23T11:56:36;6.50;99.90
42907;DHT22;28552;51.146;6.576;2024-03-23T11:59:38;5.70;99.90
42907;DHT22;28552;51.146;6.576;2024-03-23T12:02:39;5.30;99.90
42907;DHT22;28552;51.146;6.576;2024-03-23T12:05:39;5.20;99.90
42907;DHT22;28552;51.146;6.576;2024-03-23T12:08:40;5.30;99.90
42907;DHT22;28552;51.146;6.576;2024-03-23T12:11:40;5.50;99.90
42907;DHT22;28552;51.146;6.576;2024-03-23T12:14:43;5.70;99.90
42907;DHT22;28552;51.146;6.576;2024-03-23T12:17:44;5.80;99.90
42907;DHT22;28552;51.146;6.576;2024-03-23T12:20:48;5.80;99.90
42907;DHT22;28552;51.146;6.576;2024-03-23T12:23:49;5.70;99.90
42907;DHT22;28552;51.146;6.576;2024-03-23T12:26:50;5.60;99.90
42907;DHT22;28552;51.146;6.576;2024-03-23T12:29:51;5.60;99.90
42907;DHT22;28552;51.146;6.576;2024-03-23T12:32:51;5.90;99.90
42907;DHT22;28552;51.146;6.576;2024-03-23T12:35:52;6.20;99.90
42907;DHT22;28552;51.146;6.576;2024-03-23T12:38:54;6.40;99.90
42907;DHT22;28552;51.146;6.576;2024-03-23T12:41:57;6.70;99.90
42907;DHT22;28552;51.146;6.576;2024-03-23T12:44:58;7.00;99.90
42907;DHT22;28552;51.146;6.576;2024-03-23T12:48:23;7.10;99.90
42907;DHT22;28552;51.146;6.576;2024-03-23T12:51:27;7.20;99.90
42907;DHT22;28552;51.146;6.576;2024-03-23T12:54:28;7.40;99.90
42907;DHT22;28552;51.146;6.576;2024-03-23T12:57:28;7.50;99.90
42907;DHT22;28552;51.146;6.576;2024-03-23T13:00:29;7.60;99.90
42907;DHT22;28552;51.146;6.576;2024-03-23T13:03:29;7.80;99.90
42907;DHT22;28552;51.146;6.576;2024-03-23T13:06:30;8.00;99.90
42907;DHT22;28552;51.146;6.576;2024-03-23T13:09:35;8.30;99.90
42907;DHT22;28552;51.146;6.576;2024-03-23T13:12:35;7.70;99.90
42907;DHT22;28552;51.146;6.576;2024-03-23T13:15:36;7.00;99.90
42907;DHT22;28552;51.146;6.576;2024-03-23T13:18:36;6.50;99.90
42907;DHT22;28552;51.146;6.576;2024-03-23T13:21:37;6.20;99.90
42907;DHT22;28552;51.146;6.576;2024-03-23T13:24:38;6.00;99.90
42907;DHT22;28552;51.146;6.576;2024-03-23T13:27:38;6.00;99.90
42907;DHT22;28552;51.146;6.576;2024-03-23T13:30:39;6.00;99.90
42907;DHT22;28552;51.146;6.576;2024-03-23T13:33:39;6.00;99.90
42907;DHT22;28552;51.146;6.576;2024-03-23T13:36:43;6.20;99.90
42907;DHT22;28552;51.146;6.576;2024-03-23T13:39:43;6.30;99.90
42907;DHT22;28552;51.146;6.576;2024-03-23T13:42:44;6.30;99.90
42907;DHT22;28552;51.146;6.576;2024-03-23T13:45:46;6.10;99.90
42907;DHT22;28552;51.146;6.576;2024-03-23T13:48:57;6.10;99.90
42907;DHT22;28552;51.146;6.576;2024-03-23T13:51:59;6.20;99.90
42907;DHT22;28552;51.146;6.576;2024-03-23T13:55:00;6.50;99.90
42907;DHT22;28552;51.146;6.576;2024-03-23T13:58:00;6.80;99.90
42907;DHT22;28552;51.146;6.576;2024-03-23T14:01:01;7.10;99.90
42907;DHT22;28552;51.146;6.576;2024-03-23T14:04:01;7.30;99.90
42907;DHT22;28552;51.146;6.576;2024-03-23T14:07:02;7.60;99.90
42907;DHT22;28552;51.146;6.576;2024-03-23T14:10:06;7.70;99.90
42907;DHT22;28552;51.146;6.576;2024-03-23T14:13:07;7.80;99.90
42907;DHT22;28552;51.146;6.576;2024-03-23T14:16:08;7.70;99.90
42907;DHT22;28552;51.146;6.576;2024-03-23T14:19:08;7.50;99.90
42907;DHT22;28552;51.146;6.576;2024-03-23T14:22:09;7.20;99.90
42907;DHT22;28552;51.146;6.576;2024-03-23T14:25:10;6.80;99.90
42907;DHT22;28552;51.146;6.576;2024-03-23T14:28:11;6.40;99.90
42907;DHT22;28552;51.146;6.576;2024-03-23T14:31:17;6.20;99.90
42907;DHT22;28552;51.146;6.576;2024-03-23T14:34:21;6.00;99.90
42907;DHT22;28552;51.146;6.576;2024-03-23T14:37:22;6.00;99.90
42907;DHT22;28552;51.146;6.576;2024-03-23T14:40:22;6.00;99.90
42907;DHT22;28552;51.146;6.576;2024-03-23T14:43:23;6.00;99.90
42907;DHT22;28552;51.146;6.576;2024-03-23T14:46:23;6.00;99.90
42907;DHT22;28552;51.146;6.576;2024-03-23T14:49:24;6.10;99.90
42907;DHT22;28552;51.146;6.576;2024-03-23T14:52:25;6.20;99.90
42907;DHT22;28552;51.146;6.576;2024-03-23T14:55:25;6.40;99.90
42907;DHT22;28552;51.146;6.576;2024-03-23T14:58:26;6.70;99.90
42907;DHT22;28552;51.146;6.576;2024-03-23T15:01:27;6.90;99.90
42907;DHT22;28552;51.146;6.576;2024-03-23T15:04:27;7.00;99.90
42907;DHT22;28552;51.146;6.576;2024-03-23T15:07:28;7.10;99.90
42907;DHT22;28552;51.146;6.576;2024-03-23T15:10:29;7.20;99.90
42907;DHT22;28552;51.146;6.576;2024-03-23T15:13:29;7.30;99.90
42907;DHT22;28552;51.146;6.576;2024-03-23T15:16:30;7.50;99.90
42907;DHT22;28552;51.146;6.576;2024-03-23T15:19:30;7.90;99.90
42907;DHT22;28552;51.146;6.576;2024-03-23T15:22:31;8.10;99.90
42907;DHT22;28552;51.146;6.576;2024-03-23T15:25:31;8.20;99.90
42907;DHT22;28552;51.146;6.576;2024-03-23T15:28:32;8.30;99.90
42907;DHT22;28552;51.146;6.576;2024-03-23T15:31:48;8.30;99.90
42907;DHT22;28552;51.146;6.576;2024-03-23T15:34:52;8.20;99.90
42907;DHT22;28552;51.146;6.576;2024-03-23T15:37:53;8.00;99.90
42907;DHT22;28552;51.146;6.576;2024-03-23T15:40:53;7.90;99.90
42907;DHT22;28552;51.146;6.576;2024-03-23T15:43:54;7.80;99.90
42907;DHT22;28552;51.146;6.576;2024-03-23T15:46:55;7.70;99.90
42907;DHT22;28552;51.146;6.576;2024-03-23T15:49:55;7.50;99.90
42907;DHT22;28552;51.146;6.576;2024-03-23T15:52:56;7.50;99.90
42907;DHT22;28552;51.146;6.576;2024-03-23T15:55:58;7.40;99.90
42907;DHT22;28552;51.146;6.576;2024-03-23T15:58:59;7.30;99.90
42907;DHT22;28552;51.146;6.576;2024-03-23T16:02:05;7.30;99.90
42907;DHT22;28552;51.146;6.576;2024-03-23T16:05:07;7.30;99.90
42907;DHT22;28552;51.146;6.576;2024-03-23T16:08:11;7.40;99.90
42907;DHT22;28552;51.146;6.576;2024-03-23T16:11:12;7.40;99.90
42907;DHT22;28552;51.146;6.576;2024-03-23T16:14:12;7.60;99.90
42907;DHT22;28552;51.146;6.576;2024-03-23T16:17:13;7.90;99.90
42907;DHT22;28552;51.146;6.576;2024-03-23T16:20:13;8.10;99.90
42907;DHT22;28552;51.146;6.576;2024-03-23T16:23:14;8.40;99.90
42907;DHT22;28552;51.146;6.576;2024-03-23T16:26:14;8.50;99.90
42907;DHT22;28552;51.146;6.576;2024-03-23T16:29:17;8.50;99.90
42907;DHT22;28552;51.146;6.576;2024-03-23T16:32:17;8.50;99.90
42907;DHT22;28552;51.146;6.576;2024-03-23T16:35:19;8.40;99.90
42907;DHT22;28552;51.146;6.576;2024-03-23T16:38:19;8.40;99.90
42907;DHT22;28552;51.146;6.576;2024-03-23T16:41:20;8.30;99.90
42907;DHT22;28552;51.146;6.576;2024-03-23T16:44:20;8.20;99.90
42907;DHT22;28552;51.146;6.576;2024-03-23T16:47:21;8.10;99.90
42907;DHT22;28552;51.146;6.576;2024-03-23T16:50:22;8.00;99.90
42907;DHT22;28552;51.146;6.576;2024-03-23T16:53:23;8.00;99.90
42907;DHT22;28552;51.146;6.576;2024-03-23T16:56:25;8.00;99.90
42907;DHT22;28552;51.146;6.576;2024-03-23T16:59:29;7.90;99.90
42907;DHT22;28552;51.146;6.576;2024-03-23T17:02:29;7.80;99.90
42907;DHT22;28552;51.146;6.576;2024-03-23T17:05:36;7.60;99.90
42907;DHT22;28552;51.146;6.576;2024-03-23T17:08:37;7.40;99.90
42907;DHT22;28552;51.146;6.576;2024-03-23T17:11:37;7.20;99.90
42907;DHT22;28552;51.146;6.576;2024-03-23T17:14:38;7.10;99.90
42907;DHT22;28552;51.146;6.576;2024-03-23T17:17:38;7.00;99.90
42907;DHT22;28552;51.146;6.576;2024-03-23T17:20:39;7.00;99.90
42907;DHT22;28552;51.146;6.576;2024-03-23T17:23:40;6.90;99.90
42907;DHT22;28552;51.146;6.576;2024-03-23T17:26:40;6.90;99.90
42907;DHT22;28552;51.146;6.576;2024-03-23T17:29:41;6.90;99.90
42907;DHT22;28552;51.146;6.576;2024-03-23T17:32:45;6.90;99.90
42907;DHT22;28552;51.146;6.576;2024-03-23T17:35:45;6.90;99.90
42907;DHT22;28552;51.146;6.576;2024-03-23T17:38:46;6.70;99.90
42907;DHT22;28552;51.146;6.576;2024-03-23T17:41:47;6.40;99.90
42907;DHT22;28552;51.146;6.576;2024-03-23T17:44:51;6.10;99.90
42907;DHT22;28552;51.146;6.576;2024-03-23T17:47:52;5.80;99.90
42907;DHT22;28552;51.146;6.576;2024-03-23T17:51:01;5.60;99.90
42907;DHT22;28552;51.146;6.576;2024-03-23T17:54:02;5.50;99.90
42907;DHT22;28552;51.146;6.576;2024-03-23T17:57:02;5.40;99.90
42907;DHT22;28552;51.146;6.576;2024-03-23T18:00:04;5.20;99.90
42907;DHT22;28552;51.146;6.576;2024-03-23T18:03:07;5.10;99.90
42907;DHT22;28552;51.146;6.576;2024-03-23T18:06:08;5.00;99.90
42907;DHT22;28552;51.146;6.576;2024-03-23T18:09:09;5.00;99.90
42907;DHT22;28552;51.146;6.576;2024-03-23T18:12:11;4.90;99.90
42907;DHT22;28552;51.146;6.576;2024-03-23T18:15:12;4.90;99.90
42907;DHT22;28552;51.146;6.576;2024-03-23T18:18:12;4.90;99.90
42907;DHT22;28552;51.146;6.576;2024-03-23T18:21:13;4.90;99.90
42907;DHT22;28552;51.146;6.576;2024-03-23T18:24:14;4.80;99.90
42907;DHT22;28552;51.146;6.576;2024-03-23T18:27:14;4.70;99.90
42907;DHT22;28552;51.146;6.576;2024-03-23T18:30:15;4.70;99.90
42907;DHT22;28552;51.146;6.576;2024-03-23T18:33:16;4.70;99.90
42907;DHT22;28552;51.146;6.576;2024-03-23T18:36:16;4.70;99.90
42907;DHT22;28552;51.146;6.576;2024-03-23T18:39:17;4.80;99.90
42907;DHT22;28552;51.146;6.576;2024-03-23T18:42:17;4.80;99.90
42907;DHT22;28552;51.146;6.576;2024-03-23T18:45:19;4.80;99.90
42907;DHT22;28552;51.146;6.576;2024-03-23T18:48:21;4.80;99.90
42907;DHT22;28552;51.146;6.576;2024-03-23T18:51:21;4.70;99.90
42907;DHT22;28552;51.146;6.576;2024-03-23T18:54:22;4.60;99.90
42907;DHT22;28552;51.146;6.576;2024-03-23T18:57:23;4.50;99.90
42907;DHT22;28552;51.146;6.576;2024-03-23T19:00:23;4.50;99.90
42907;DHT22;28552;51.146;6.576;2024-03-23T19:03:25;4.40;99.90
42907;DHT22;28552;51.146;6.576;2024-03-23T19:06:25;4.30;99.90
42907;DHT22;28552;51.146;6.576;2024-03-23T19:09:26;4.30;99.90
42907;DHT22;28552;51.146;6.576;2024-03-23T19:12:28;4.30;99.90
42907;DHT22;28552;51.146;6.576;2024-03-23T19:15:28;4.30;99.90
42907;DHT22;28552;51.146;6.576;2024-03-23T19:18:29;4.20;99.90
42907;DHT22;28552;51.146;6.576;2024-03-23T19:21:29;4.20;99.90
42907;DHT22;28552;51.146;6.576;2024-03-23T19:24:30;4.20;99.90
42907;DHT22;28552;51.146;6.576;2024-03-23T19:27:31;4.10;99.90
42907;DHT22;28552;51.146;6.576;2024-03-23T19:30:34;4.10;99.90
42907;DHT22;28552;51.146;6.576;2024-03-23T19:33:34;4.10;99.90
42907;DHT22;28552;51.146;6.576;2024-03-23T19:36:35;4.20;99.90
42907;DHT22;28552;51.146;6.576;2024-03-23T19:39:36;4.30;99.90
42907;DHT22;28552;51.146;6.576;2024-03-23T19:42:36;4.40;99.90
42907;DHT22;28552;51.146;6.576;2024-03-23T19:45:37;4.40;99.90
42907;DHT22;28552;51.146;6.576;2024-03-23T19:48:37;4.50;99.90
42907;DHT22;28552;51.146;6.576;2024-03-23T19:51:38;4.40;99.90
42907;DHT22;28552;51.146;6.576;2024-03-23T19:54:39;4.40;99.90
42907;DHT22;28552;51.146;6.576;2024-03-23T19:57:39;4.30;99.90
42907;DHT22;28552;51.146;6.576;2024-03-23T20:00:40;4.40;99.90
42907;DHT22;28552;51.146;6.576;2024-03-23T20:03:45;4.40;99.90
42907;DHT22;28552;51.146;6.576;2024-03-23T20:06:45;4.30;99.90
42907;DHT22;28552;51.146;6.576;2024-03-23T20:09:46;4.30;99.90
42907;DHT22;28552;51.146;6.576;2024-03-23T20:12:46;4.30;99.90
42907;DHT22;28552;51.146;6.576;2024-03-23T20:15:54;4.30;99.90
42907;DHT22;28552;51.146;6.576;2024-03-23T20:18:55;4.20;99.90
42907;DHT22;28552;51.146;6.576;2024-03-23T20:21:56;4.20;99.90